createdAt,value
2022-11-17T00:00:24.683Z,11.52
2022-11-17T00:03:15.998Z,10.75
2022-11-17T00:06:06.872Z,11.57
2022-11-17T00:08:53.684Z,12.13
2022-11-17T00:11:58.666Z,11.05
2022-11-17T00:14:44.591Z,12.20
2022-11-17T00:17:31.109Z,13.00
2022-11-17T00:20:35.909Z,12.52
2022-11-17T00:23:22.223Z,13.45
2022-11-17T00:26:08.088Z,12.65
2022-11-17T00:28:58.966Z,12.40
2022-11-17T00:32:03.935Z,13.18
2022-11-17T00:34:50.327Z,11.93
2022-11-17T00:37:37.701Z,11.02
2022-11-17T00:40:24.174Z,11.20
2022-11-17T00:43:10.445Z,12.82
2022-11-17T00:45:57.392Z,12.00
2022-11-17T00:48:43.653Z,11.40
2022-11-17T00:51:30.173Z,10.85
2022-11-17T00:54:16.290Z,11.88
2022-11-17T00:57:03.041Z,13.63
2022-11-17T00:59:49.122Z,13.65
2022-11-17T01:02:35.401Z,10.90
2022-11-17T01:05:21.535Z,10.93
2022-11-17T01:08:07.810Z,11.07
2022-11-17T01:10:54.376Z,11.60
2022-11-17T01:13:42.050Z,11.25
2022-11-17T01:16:29.007Z,11.25
2022-11-17T01:19:16.464Z,11.88
2022-11-17T01:22:02.662Z,11.05
2022-11-17T01:24:48.977Z,10.75
2022-11-17T01:27:35.363Z,13.00
2022-11-17T01:30:21.937Z,11.55
2022-11-17T01:33:08.479Z,12.02
2022-11-17T01:35:54.877Z,11.57
2022-11-17T01:38:40.779Z,12.07
2022-11-17T01:41:28.359Z,11.13
2022-11-17T01:44:36.339Z,16.08
2022-11-17T01:47:32.214Z,14.68
2022-11-17T01:50:32.394Z,12.23
2022-11-17T01:53:20.066Z,11.38
2022-11-17T01:56:12.566Z,11.95
2022-11-17T01:59:04.517Z,14.07
2022-11-17T02:01:56.708Z,12.25
2022-11-17T02:04:49.682Z,13.77
2022-11-17T02:07:37.369Z,12.65
2022-11-17T02:10:23.337Z,11.80
2022-11-17T02:13:09.659Z,10.90
2022-11-17T02:15:55.815Z,11.23
2022-11-17T02:18:42.197Z,12.27
2022-11-17T02:22:02.399Z,11.75
2022-11-17T02:25:12.654Z,11.05
2022-11-17T02:28:13.715Z,10.20
2022-11-17T02:31:07.839Z,10.88
2022-11-17T02:34:04.471Z,10.05
2022-11-17T02:36:58.241Z,11.70
2022-11-17T02:40:03.304Z,13.90
2022-11-17T02:43:19.515Z,10.13
2022-11-17T02:46:18.370Z,9.90
2022-11-17T02:49:10.030Z,10.32
2022-11-17T02:51:58.395Z,11.65
2022-11-17T02:54:43.971Z,10.43
2022-11-17T02:57:34.575Z,10.20
2022-11-17T03:00:20.758Z,10.43
2022-11-17T03:03:35.002Z,10.15
2022-11-17T03:06:39.627Z,10.60
2022-11-17T03:09:33.098Z,9.05
2022-11-17T03:12:25.934Z,9.30
2022-11-17T03:15:41.010Z,10.23
2022-11-17T03:18:47.308Z,10.38
2022-11-17T03:21:50.033Z,10.02
2022-11-17T03:24:40.120Z,9.25
2022-11-17T03:27:33.510Z,10.38
2022-11-17T03:30:20.950Z,10.40
2022-11-17T03:33:15.216Z,10.07
2022-11-17T03:36:11.660Z,21.98
2022-11-17T03:39:17.038Z,12.80
2022-11-17T03:42:07.019Z,10.98
2022-11-17T03:44:56.286Z,10.95
2022-11-17T03:47:42.995Z,11.15
2022-11-17T03:50:34.950Z,10.93
2022-11-17T03:53:20.379Z,14.30
2022-11-17T03:56:28.271Z,11.75
2022-11-17T03:59:22.793Z,11.60
2022-11-17T04:02:09.512Z,10.73
2022-11-17T04:05:07.285Z,11.10
2022-11-17T04:07:53.287Z,11.98
2022-11-17T04:10:58.756Z,12.13
2022-11-17T04:14:03.279Z,12.90
2022-11-17T04:16:48.955Z,41.03
2022-11-17T04:19:34.775Z,14.25
2022-11-17T04:22:20.573Z,11.55
2022-11-17T04:25:06.883Z,16.10
2022-11-17T04:28:11.601Z,17.00
2022-11-17T04:30:57.859Z,12.20
2022-11-17T04:33:45.982Z,13.43
2022-11-17T04:36:35.921Z,12.45
2022-11-17T04:39:21.360Z,11.70
2022-11-17T04:42:07.361Z,11.77
2022-11-17T04:44:52.752Z,10.90
2022-11-17T04:47:38.393Z,11.95
2022-11-17T04:50:24.031Z,12.55
2022-11-17T04:53:09.795Z,12.93
2022-11-17T04:55:59.956Z,12.63
2022-11-17T04:58:46.263Z,12.63
2022-11-17T05:01:32.658Z,14.02
2022-11-17T05:04:39.009Z,12.88
2022-11-17T05:07:24.543Z,10.45
2022-11-17T05:10:12.754Z,10.25
2022-11-17T05:13:30.111Z,10.85
2022-11-17T05:16:34.700Z,11.15
2022-11-17T05:19:23.083Z,11.80
2022-11-17T05:22:28.408Z,10.15
2022-11-17T05:25:14.605Z,10.63
2022-11-17T05:28:00.615Z,11.95
2022-11-17T05:30:46.186Z,12.35
2022-11-17T05:33:37.453Z,17.38
2022-11-17T05:36:24.569Z,11.68
2022-11-17T05:39:11.229Z,10.05
2022-11-17T05:41:56.727Z,12.82
2022-11-17T05:44:42.534Z,11.05
2022-11-17T05:47:28.209Z,9.52
2022-11-17T05:50:13.949Z,9.85
2022-11-17T05:52:59.642Z,10.05
2022-11-17T05:55:45.393Z,9.23
2022-11-17T05:58:35.214Z,9.15
2022-11-17T06:01:21.587Z,9.67
2022-11-17T06:04:08.040Z,8.52
2022-11-17T06:06:58.967Z,9.65
2022-11-17T06:09:44.746Z,11.52
2022-11-17T06:12:30.910Z,9.70
2022-11-17T06:15:16.839Z,9.38
2022-11-17T06:18:06.565Z,9.15
2022-11-17T06:20:53.844Z,9.02
2022-11-17T06:23:39.607Z,8.88
2022-11-17T06:26:25.445Z,9.55
2022-11-17T06:29:11.369Z,9.35
2022-11-17T06:31:58.179Z,9.43
2022-11-17T06:34:48.045Z,21.50
2022-11-17T06:37:37.674Z,9.82
2022-11-17T06:40:23.809Z,10.10
2022-11-17T06:43:11.752Z,9.48
2022-11-17T06:45:57.608Z,9.75
2022-11-17T06:48:43.737Z,19.00
2022-11-17T06:51:29.557Z,10.93
2022-11-17T06:54:15.514Z,9.80
2022-11-17T06:57:01.375Z,10.75
2022-11-17T06:59:47.275Z,10.02
2022-11-17T07:02:33.151Z,9.45
2022-11-17T07:05:18.750Z,9.48
2022-11-17T07:08:08.353Z,10.40
2022-11-17T07:10:55.036Z,10.05
2022-11-17T07:13:40.825Z,9.45
2022-11-17T07:16:26.810Z,11.80
2022-11-17T07:19:13.204Z,10.25
2022-11-17T07:21:58.856Z,9.63
2022-11-17T07:24:44.909Z,10.55
2022-11-17T07:27:30.915Z,10.50
2022-11-17T07:30:17.465Z,11.55
2022-11-17T07:43:58.676Z,10.00
2022-11-17T08:03:06.678Z,10.95
2022-11-17T08:11:23.681Z,10.70
2022-11-17T08:25:20.469Z,7.65
2022-11-17T08:28:35.423Z,8.57
2022-11-17T08:31:52.381Z,7.47
2022-11-17T08:35:08.575Z,7.65
2022-11-17T08:38:27.894Z,7.50
2022-11-17T08:41:15.304Z,7.65
2022-11-17T09:05:11.693Z,8.45
2022-11-17T09:08:44.377Z,8.80
2022-11-17T09:11:54.352Z,8.65
2022-11-17T09:15:32.724Z,9.10
2022-11-17T09:18:37.142Z,14.30
2022-11-17T09:21:23.098Z,6.93
2022-11-17T09:24:08.643Z,6.22
2022-11-17T09:26:54.986Z,6.40
2022-11-17T09:29:41.051Z,6.45
2022-11-17T09:32:27.987Z,6.05
2022-11-17T09:35:14.303Z,6.40
2022-11-17T09:38:03.648Z,4.45
2022-11-17T09:40:49.645Z,6.22
2022-11-17T09:43:37.995Z,4.80
2022-11-17T09:46:35.041Z,4.50
2022-11-17T09:49:40.073Z,4.40
2022-11-17T09:52:31.446Z,4.78
2022-11-17T09:55:31.149Z,4.40
2022-11-17T09:58:46.366Z,4.30
2022-11-17T10:01:32.417Z,4.10
2022-11-17T10:04:18.655Z,4.22
2022-11-17T10:07:04.396Z,4.00
2022-11-17T10:09:50.929Z,4.28
2022-11-17T10:12:44.903Z,3.92
2022-11-17T10:15:42.316Z,3.85
2022-11-17T10:18:36.572Z,4.18
2022-11-17T10:21:23.829Z,4.65
2022-11-17T10:24:10.068Z,4.40
2022-11-17T10:26:55.522Z,5.20
2022-11-17T10:29:41.325Z,4.95
2022-11-17T10:32:29.157Z,5.13
2022-11-17T10:35:19.330Z,4.85
2022-11-17T10:38:07.978Z,4.80
2022-11-17T10:40:55.211Z,4.60
2022-11-17T10:43:57.190Z,4.22
2022-11-17T10:47:02.040Z,4.53
2022-11-17T10:50:13.501Z,5.20
2022-11-17T10:53:21.762Z,4.35
2022-11-17T10:56:13.476Z,3.92
2022-11-17T10:59:14.369Z,4.90
2022-11-17T11:02:28.176Z,5.90
2022-11-17T11:05:33.918Z,10.32
2022-11-17T11:08:47.472Z,5.53
2022-11-17T11:11:41.486Z,5.00
2022-11-17T11:14:35.116Z,5.20
2022-11-17T11:17:21.053Z,5.57
2022-11-17T11:20:13.118Z,8.70
2022-11-17T11:23:23.781Z,4.43
2022-11-17T11:26:27.513Z,9.77
2022-11-17T11:29:28.674Z,7.53
2022-11-17T11:35:17.214Z,13.25
2022-11-17T11:38:28.886Z,6.15
2022-11-17T11:41:33.009Z,5.22
2022-11-17T11:44:57.562Z,5.60
2022-11-17T11:47:51.989Z,6.63
2022-11-17T11:50:49.057Z,6.25
2022-11-17T11:54:02.609Z,10.05
2022-11-17T11:56:48.664Z,7.05
2022-11-17T11:59:34.392Z,7.15
2022-11-17T12:02:55.692Z,7.57
2022-11-17T12:08:45.780Z,6.97
2022-11-17T12:11:50.609Z,7.13
2022-11-17T12:14:37.834Z,6.57
2022-11-17T12:17:26.219Z,5.43
2022-11-17T12:20:30.991Z,7.80
2022-11-17T12:23:38.236Z,7.63
2022-11-17T12:26:25.611Z,6.30
2022-11-17T12:29:19.986Z,7.43
2022-11-17T12:32:06.053Z,7.03
2022-11-17T12:35:30.114Z,7.75
2022-11-17T12:38:16.406Z,7.63
2022-11-17T12:41:02.283Z,8.40
2022-11-17T12:43:48.929Z,7.60
2022-11-17T12:46:34.931Z,7.28
2022-11-17T12:49:27.994Z,7.13
2022-11-17T12:52:22.946Z,6.55
2022-11-17T12:55:12.233Z,8.18
2022-11-17T12:58:10.544Z,8.88
2022-11-17T13:01:10.289Z,10.25
2022-11-17T13:04:12.751Z,31.95
2022-11-17T13:07:07.271Z,7.43
2022-11-17T13:09:57.217Z,22.90
2022-11-17T13:12:43.643Z,9.38
2022-11-17T13:15:29.714Z,21.75
2022-11-17T13:18:28.364Z,11.23
2022-11-17T13:21:33.157Z,18.65
2022-11-17T13:24:30.200Z,17.08
2022-11-17T13:27:29.019Z,7.25
2022-11-17T13:30:29.178Z,18.58
2022-11-17T13:33:20.366Z,10.07
2022-11-17T13:39:00.475Z,8.52
2022-11-17T13:41:46.910Z,22.45
2022-11-17T13:44:33.073Z,19.75
2022-11-17T13:47:28.871Z,9.48
2022-11-17T13:50:26.845Z,5.30
2022-11-17T13:53:12.579Z,5.80
2022-11-17T13:55:58.077Z,6.18
2022-11-17T13:58:48.280Z,6.60
2022-11-17T14:01:34.303Z,9.13
2022-11-17T14:04:23.201Z,10.60
2022-11-17T14:07:10.877Z,8.57
2022-11-17T14:10:31.297Z,11.90
2022-11-17T14:13:16.809Z,8.07
2022-11-17T14:16:02.651Z,7.00
2022-11-17T14:18:56.536Z,8.35
2022-11-17T14:22:13.234Z,5.93
2022-11-17T14:25:05.694Z,7.93
2022-11-17T14:27:53.308Z,7.47
2022-11-17T14:30:39.253Z,5.90
2022-11-17T14:33:25.835Z,6.82
2022-11-17T14:36:16.740Z,7.65
2022-11-17T14:39:03.204Z,6.05
2022-11-17T14:41:49.958Z,6.90
2022-11-17T14:44:35.895Z,6.95
2022-11-17T14:47:21.318Z,8.30
2022-11-17T14:50:09.884Z,7.45
2022-11-17T14:52:55.456Z,9.88
2022-11-17T14:55:41.480Z,7.13
2022-11-17T14:58:27.247Z,12.27
2022-11-17T15:01:18.742Z,9.05
2022-11-17T15:07:11.588Z,14.75
2022-11-17T15:09:57.740Z,14.77
2022-11-17T15:12:43.760Z,17.92
2022-11-17T15:15:29.227Z,15.07
2022-11-17T15:18:15.188Z,16.20
2022-11-17T15:21:05.696Z,19.90
2022-11-17T15:23:51.504Z,14.90
2022-11-17T15:26:37.205Z,20.58
2022-11-17T15:29:23.375Z,18.42
2022-11-17T15:32:09.010Z,14.52
2022-11-17T15:34:55.079Z,20.83
2022-11-17T15:37:40.453Z,16.92
2022-11-17T15:40:26.427Z,13.15
2022-11-17T15:43:11.921Z,10.98
2022-11-17T15:46:06.413Z,11.40
2022-11-17T15:48:52.632Z,14.70
2022-11-17T15:51:38.818Z,12.05
2022-11-17T15:54:25.111Z,13.48
2022-11-17T15:57:10.613Z,11.68
2022-11-17T15:59:56.390Z,12.60
2022-11-17T16:02:42.347Z,8.75
2022-11-17T16:05:28.313Z,10.77
2022-11-17T16:08:14.130Z,16.67
2022-11-17T16:10:59.512Z,11.30
2022-11-17T16:13:45.652Z,14.23
2022-11-17T16:16:33.945Z,12.80
2022-11-17T16:19:20.076Z,16.77
2022-11-17T16:22:05.659Z,12.77
2022-11-17T16:24:51.324Z,21.52
2022-11-17T16:27:37.037Z,12.85
2022-11-17T16:30:29.256Z,12.18
2022-11-17T16:33:17.559Z,10.32
2022-11-17T16:36:07.132Z,14.10
2022-11-17T16:39:02.124Z,12.65
2022-11-17T16:42:00.243Z,11.98
2022-11-17T16:44:46.007Z,14.70
2022-11-17T16:47:32.310Z,14.65
2022-11-17T16:50:17.828Z,19.75
2022-11-17T16:53:04.935Z,13.05
2022-11-17T16:55:50.613Z,21.20
2022-11-17T16:58:36.787Z,19.00
2022-11-17T17:01:26.257Z,16.15
2022-11-17T17:04:12.595Z,18.00
2022-11-17T17:06:58.437Z,18.67
2022-11-17T17:09:44.040Z,17.85
2022-11-17T17:12:29.410Z,20.20
2022-11-17T17:15:15.375Z,29.70
2022-11-17T17:18:03.449Z,14.43
2022-11-17T17:20:52.677Z,14.85
2022-11-17T17:23:38.231Z,14.48
2022-11-17T17:26:26.450Z,14.50
2022-11-17T17:29:12.721Z,17.73
2022-11-17T17:31:58.428Z,17.77
2022-11-17T17:34:44.029Z,23.85
2022-11-17T17:37:32.298Z,17.60
2022-11-17T17:40:19.243Z,23.23
2022-11-17T17:43:12.075Z,24.48
2022-11-17T17:46:15.863Z,28.13
2022-11-17T17:49:02.234Z,25.30
2022-11-17T17:51:47.980Z,27.60
2022-11-17T17:54:33.965Z,28.90
2022-11-17T17:57:20.056Z,20.00
2022-11-17T18:00:06.717Z,23.30
2022-11-17T18:02:52.853Z,23.05
2022-11-17T18:05:39.032Z,22.83
2022-11-17T18:08:24.483Z,33.78
2022-11-17T18:11:13.157Z,27.88
2022-11-17T18:14:00.726Z,26.67
2022-11-17T18:16:46.333Z,26.80
2022-11-17T18:19:33.454Z,30.35
2022-11-17T18:22:19.630Z,23.80
2022-11-17T18:25:09.179Z,16.73
2022-11-17T18:27:57.096Z,16.70
2022-11-17T18:30:42.579Z,30.30
2022-11-17T18:33:29.767Z,18.00
2022-11-17T18:36:15.224Z,16.98
2022-11-17T18:39:01.051Z,18.42
2022-11-17T18:41:47.034Z,21.52
2022-11-17T18:44:33.293Z,19.40
2022-11-17T18:47:18.804Z,18.92
2022-11-17T18:50:04.865Z,16.52
2022-11-17T18:52:50.474Z,18.27
2022-11-17T18:55:36.575Z,19.10
2022-11-17T18:58:22.199Z,17.85
2022-11-17T19:01:14.102Z,30.42
2022-11-17T19:04:01.019Z,26.88
2022-11-17T19:06:46.812Z,22.98
2022-11-17T19:09:32.131Z,20.30
2022-11-17T19:12:19.032Z,15.00
2022-11-17T19:15:05.470Z,17.77
2022-11-17T19:17:51.554Z,20.75
2022-11-17T19:20:36.993Z,42.67
2022-11-17T19:23:22.946Z,34.78
2022-11-17T19:26:10.960Z,21.30
2022-11-17T19:28:58.394Z,17.17
2022-11-17T19:31:45.203Z,20.80
2022-11-17T19:34:31.684Z,18.83
2022-11-17T19:37:17.700Z,17.75
2022-11-17T19:40:03.442Z,19.73
2022-11-17T19:42:50.135Z,17.33
2022-11-17T19:45:35.904Z,17.08
2022-11-17T19:48:21.205Z,19.75
2022-11-17T19:51:20.464Z,21.90
2022-11-17T19:54:08.436Z,21.90
2022-11-17T19:56:54.645Z,22.63
2022-11-17T19:59:40.625Z,24.02
2022-11-17T20:02:26.577Z,21.65
2022-11-17T20:05:12.139Z,19.73
2022-11-17T20:07:57.900Z,21.63
2022-11-17T20:10:43.474Z,22.40
2022-11-17T20:13:31.399Z,22.77
2022-11-17T20:16:22.176Z,19.13
2022-11-17T20:19:09.001Z,18.83
2022-11-17T20:21:54.690Z,17.73
2022-11-17T20:24:40.867Z,19.52
2022-11-17T20:27:26.452Z,21.45
2022-11-17T20:30:15.347Z,22.48
2022-11-17T20:33:01.664Z,19.77
2022-11-17T20:35:47.305Z,18.50
2022-11-17T20:38:33.160Z,18.80
2022-11-17T20:41:20.993Z,17.48
2022-11-17T20:44:23.628Z,20.83
2022-11-17T20:47:09.757Z,18.88
2022-11-17T20:49:55.713Z,18.45
2022-11-17T20:52:41.444Z,19.30
2022-11-17T20:55:27.054Z,19.25
2022-11-17T20:58:13.409Z,18.15
2022-11-17T21:00:59.585Z,19.23
2022-11-17T21:03:45.819Z,18.58
2022-11-17T21:06:31.849Z,17.35
2022-11-17T21:09:18.367Z,17.85
2022-11-17T21:12:04.519Z,18.65
2022-11-17T21:14:50.337Z,18.55
2022-11-17T21:17:54.723Z,18.20
2022-11-17T21:20:42.835Z,16.30
2022-11-17T21:23:28.463Z,43.78
2022-11-17T21:26:19.356Z,25.52
2022-11-17T21:29:06.918Z,20.10
2022-11-17T21:31:52.873Z,18.20
2022-11-17T21:34:38.151Z,19.92
2022-11-17T21:37:24.408Z,22.05
2022-11-17T21:40:10.047Z,19.95
2022-11-17T21:42:56.124Z,19.95
2022-11-17T21:45:42.184Z,18.73
2022-11-17T21:48:28.440Z,22.35
2022-11-17T21:51:25.008Z,19.95
2022-11-17T21:54:10.879Z,39.97
2022-11-17T21:56:56.470Z,23.33
2022-11-17T21:59:42.539Z,24.23
2022-11-17T22:02:28.098Z,22.02
2022-11-17T22:05:14.003Z,21.85
2022-11-17T22:07:59.892Z,21.75
2022-11-17T22:10:45.686Z,23.38
2022-11-17T22:13:31.103Z,20.75
2022-11-17T22:16:16.811Z,20.77
2022-11-17T22:19:03.085Z,20.63
2022-11-17T22:21:51.206Z,22.40
2022-11-17T22:24:39.543Z,23.80
2022-11-17T22:27:28.260Z,25.80
2022-11-17T22:30:15.048Z,54.75
2022-11-17T22:33:01.286Z,38.28
2022-11-17T22:35:46.942Z,29.05
2022-11-17T22:38:33.090Z,25.45
2022-11-17T22:41:21.304Z,26.85
2022-11-17T22:44:07.499Z,26.00
2022-11-17T22:46:53.914Z,30.92
2022-11-17T22:49:40.519Z,30.50
2022-11-17T22:52:26.403Z,29.20
2022-11-17T22:55:13.176Z,26.42
2022-11-17T22:57:59.140Z,27.63
2022-11-17T23:00:46.078Z,28.88
2022-11-17T23:03:32.761Z,26.67
2022-11-17T23:06:19.068Z,25.42
2022-11-17T23:09:04.671Z,26.88
2022-11-17T23:11:50.945Z,22.27
2022-11-17T23:14:36.386Z,24.55
2022-11-17T23:17:22.409Z,21.95
2022-11-17T23:20:10.110Z,21.63
2022-11-17T23:22:56.071Z,23.58
2022-11-17T23:25:42.006Z,24.23
2022-11-17T23:28:27.761Z,23.85
2022-11-17T23:31:15.148Z,29.35
2022-11-17T23:34:01.950Z,27.40
2022-11-17T23:36:47.550Z,32.50
2022-11-17T23:39:33.541Z,26.60
2022-11-17T23:42:19.015Z,24.00
2022-11-17T23:45:05.692Z,22.10
2022-11-17T23:47:51.566Z,17.90
2022-11-17T23:50:38.007Z,18.83
2022-11-17T23:53:23.990Z,17.98
2022-11-17T23:56:11.107Z,20.33
2022-11-17T23:58:56.695Z,31.50
